sensor_id;sensor_type;location;lat;lon;timestamp;temperature;humidity
24436;DHT22;12616;52.470;13.436;2023-03-31T00:01:08;10.70;99.90
24436;DHT22;12616;52.470;13.436;2023-03-31T00:03:35;10.70;99.90
24436;DHT22;12616;52.470;13.436;2023-03-31T00:06:09;10.70;99.90
24436;DHT22;12616;52.470;13.436;2023-03-31T00:08:36;10.70;99.90
24436;DHT22;12616;52.470;13.436;2023-03-31T00:11:06;10.70;99.90
24436;DHT22;12616;52.470;13.436;2023-03-31T00:13:35;10.70;99.90
24436;DHT22;12616;52.470;13.436;2023-03-31T00:16:05;10.60;99.90
24436;DHT22;12616;52.470;13.436;2023-03-31T00:18:32;10.60;99.90
24436;DHT22;12616;52.470;13.436;2023-03-31T00:21:06;10.60;99.90
24436;DHT22;12616;52.470;13.436;2023-03-31T00:23:33;10.70;1.00
24436;DHT22;12616;52.470;13.436;2023-03-31T00:26:00;10.60;99.90
24436;DHT22;12616;52.470;13.436;2023-03-31T00:28:27;10.60;99.90
24436;DHT22;12616;52.470;13.436;2023-03-31T00:31:00;11.00;1.00
24436;DHT22;12616;52.470;13.436;2023-03-31T00:33:27;10.50;99.90
24436;DHT22;12616;52.470;13.436;2023-03-31T00:35:55;10.50;99.90
24436;DHT22;12616;52.470;13.436;2023-03-31T00:38:26;10.50;1.00
24436;DHT22;12616;52.470;13.436;2023-03-31T00:40:53;10.60;99.90
24436;DHT22;12616;52.470;13.436;2023-03-31T00:43:28;10.50;99.90
24436;DHT22;12616;52.470;13.436;2023-03-31T00:46:12;10.50;99.90
24436;DHT22;12616;52.470;13.436;2023-03-31T00:48:44;10.70;1.00
24436;DHT22;12616;52.470;13.436;2023-03-31T00:51:13;10.50;1.00
24436;DHT22;12616;52.470;13.436;2023-03-31T00:53:40;10.50;99.90
24436;DHT22;12616;52.470;13.436;2023-03-31T00:56:11;10.50;99.90
24436;DHT22;12616;52.470;13.436;2023-03-31T00:58:39;10.50;99.90
24436;DHT22;12616;52.470;13.436;2023-03-31T01:01:11;10.50;1.00
24436;DHT22;12616;52.470;13.436;2023-03-31T01:03:40;10.40;99.90
24436;DHT22;12616;52.470;13.436;2023-03-31T01:06:12;10.40;99.90
24436;DHT22;12616;52.470;13.436;2023-03-31T01:08:42;10.40;99.90
24436;DHT22;12616;52.470;13.436;2023-03-31T01:11:13;10.30;99.90
24436;DHT22;12616;52.470;13.436;2023-03-31T01:13:41;10.30;1.00
24436;DHT22;12616;52.470;13.436;2023-03-31T01:16:11;10.30;99.90
24436;DHT22;12616;52.470;13.436;2023-03-31T01:18:38;10.20;1.00
24436;DHT22;12616;52.470;13.436;2023-03-31T01:21:36;10.10;1.00
24436;DHT22;12616;52.470;13.436;2023-03-31T01:24:40;10.10;1.00
24436;DHT22;12616;52.470;13.436;2023-03-31T01:27:42;10.00;1.00
24436;DHT22;12616;52.470;13.436;2023-03-31T01:33:48;10.00;1.00
24436;DHT22;12616;52.470;13.436;2023-03-31T01:39:56;9.90;1.00
24436;DHT22;12616;52.470;13.436;2023-03-31T01:42:30;10.00;1.00
24436;DHT22;12616;52.470;13.436;2023-03-31T01:45:05;10.00;1.00
24436;DHT22;12616;52.470;13.436;2023-03-31T01:47:39;10.00;1.00
24436;DHT22;12616;52.470;13.436;2023-03-31T01:50:14;10.00;1.00
24436;DHT22;12616;52.470;13.436;2023-03-31T01:52:47;10.20;1.00
24436;DHT22;12616;52.470;13.436;2023-03-31T01:55:21;10.00;1.00
24436;DHT22;12616;52.470;13.436;2023-03-31T01:57:52;10.40;1.00
24436;DHT22;12616;52.470;13.436;2023-03-31T02:00:24;10.00;1.00
24436;DHT22;12616;52.470;13.436;2023-03-31T02:02:56;10.10;1.00
24436;DHT22;12616;52.470;13.436;2023-03-31T02:05:26;9.90;1.00
24436;DHT22;12616;52.470;13.436;2023-03-31T02:07:57;10.10;1.00
24436;DHT22;12616;52.470;13.436;2023-03-31T02:10:28;10.10;1.00
24436;DHT22;12616;52.470;13.436;2023-03-31T02:12:59;10.00;1.00
24436;DHT22;12616;52.470;13.436;2023-03-31T02:15:29;9.90;1.00
24436;DHT22;12616;52.470;13.436;2023-03-31T02:18:00;10.00;1.00
24436;DHT22;12616;52.470;13.436;2023-03-31T02:20:31;10.00;1.00
24436;DHT22;12616;52.470;13.436;2023-03-31T02:22:58;10.00;1.00
24436;DHT22;12616;52.470;13.436;2023-03-31T02:25:31;10.00;1.00
24436;DHT22;12616;52.470;13.436;2023-03-31T02:28:04;10.00;1.00
24436;DHT22;12616;52.470;13.436;2023-03-31T02:30:38;10.00;1.00
24436;DHT22;12616;52.470;13.436;2023-03-31T02:33:08;10.00;1.00
24436;DHT22;12616;52.470;13.436;2023-03-31T02:35:35;10.20;1.00
24436;DHT22;12616;52.470;13.436;2023-03-31T02:38:01;10.00;1.00
24436;DHT22;12616;52.470;13.436;2023-03-31T02:40:32;10.00;1.00
24436;DHT22;12616;52.470;13.436;2023-03-31T02:42:59;10.00;1.00
24436;DHT22;12616;52.470;13.436;2023-03-31T02:45:38;10.10;1.00
24436;DHT22;12616;52.470;13.436;2023-03-31T02:48:07;10.10;1.00
24436;DHT22;12616;52.470;13.436;2023-03-31T02:50:52;10.10;1.00
24436;DHT22;12616;52.470;13.436;2023-03-31T02:53:29;10.10;1.00
24436;DHT22;12616;52.470;13.436;2023-03-31T02:56:10;10.10;1.00
24436;DHT22;12616;52.470;13.436;2023-03-31T02:59:00;10.10;1.00
24436;DHT22;12616;52.470;13.436;2023-03-31T03:01:42;10.10;1.00
24436;DHT22;12616;52.470;13.436;2023-03-31T03:04:25;10.10;1.00
24436;DHT22;12616;52.470;13.436;2023-03-31T03:07:03;10.10;1.00
24436;DHT22;12616;52.470;13.436;2023-03-31T03:09:40;10.40;1.00
24436;DHT22;12616;52.470;13.436;2023-03-31T03:12:15;10.20;1.00
24436;DHT22;12616;52.470;13.436;2023-03-31T03:14:47;10.20;1.00
24436;DHT22;12616;52.470;13.436;2023-03-31T03:17:20;10.20;1.00
24436;DHT22;12616;52.470;13.436;2023-03-31T03:19:54;10.40;1.00
24436;DHT22;12616;52.470;13.436;2023-03-31T03:22:21;10.20;1.00
24436;DHT22;12616;52.470;13.436;2023-03-31T03:24:48;10.20;1.00
24436;DHT22;12616;52.470;13.436;2023-03-31T03:27:17;10.20;1.00
24436;DHT22;12616;52.470;13.436;2023-03-31T03:29:44;10.30;1.00
24436;DHT22;12616;52.470;13.436;2023-03-31T03:32:12;10.20;1.00
24436;DHT22;12616;52.470;13.436;2023-03-31T03:34:39;10.20;1.00
24436;DHT22;12616;52.470;13.436;2023-03-31T03:37:06;10.40;1.00
24436;DHT22;12616;52.470;13.436;2023-03-31T03:39:33;10.20;1.00
24436;DHT22;12616;52.470;13.436;2023-03-31T03:42:00;10.20;1.00
24436;DHT22;12616;52.470;13.436;2023-03-31T03:44:28;10.20;1.00
24436;DHT22;12616;52.470;13.436;2023-03-31T03:46:55;10.20;1.00
24436;DHT22;12616;52.470;13.436;2023-03-31T03:49:22;10.20;1.00
24436;DHT22;12616;52.470;13.436;2023-03-31T03:51:49;10.20;1.00
24436;DHT22;12616;52.470;13.436;2023-03-31T03:54:16;10.20;1.00
24436;DHT22;12616;52.470;13.436;2023-03-31T03:56:43;10.20;1.00
24436;DHT22;12616;52.470;13.436;2023-03-31T03:59:10;10.20;1.00
24436;DHT22;12616;52.470;13.436;2023-03-31T04:01:38;10.20;1.00
24436;DHT22;12616;52.470;13.436;2023-03-31T04:04:05;10.20;1.00
24436;DHT22;12616;52.470;13.436;2023-03-31T04:06:32;10.40;1.00
24436;DHT22;12616;52.470;13.436;2023-03-31T04:08:59;10.20;1.00
24436;DHT22;12616;52.470;13.436;2023-03-31T04:11:27;10.20;1.00
24436;DHT22;12616;52.470;13.436;2023-03-31T04:13:54;10.20;1.00
24436;DHT22;12616;52.470;13.436;2023-03-31T04:16:20;10.20;1.00
24436;DHT22;12616;52.470;13.436;2023-03-31T04:18:51;10.20;1.00
24436;DHT22;12616;52.470;13.436;2023-03-31T04:21:22;10.10;1.00
24436;DHT22;12616;52.470;13.436;2023-03-31T04:23:50;10.20;1.00
24436;DHT22;12616;52.470;13.436;2023-03-31T04:26:24;9.70;1.00
24436;DHT22;12616;52.470;13.436;2023-03-31T04:28:55;10.20;1.00
24436;DHT22;12616;52.470;13.436;2023-03-31T04:31:25;10.20;1.00
24436;DHT22;12616;52.470;13.436;2023-03-31T04:33:56;10.10;35.80
24436;DHT22;12616;52.470;13.436;2023-03-31T04:36:27;10.10;1.00
24436;DHT22;12616;52.470;13.436;2023-03-31T04:38:56;10.10;1.00
24436;DHT22;12616;52.470;13.436;2023-03-31T04:41:23;10.10;1.00
24436;DHT22;12616;52.470;13.436;2023-03-31T04:43:52;10.00;1.00
24436;DHT22;12616;52.470;13.436;2023-03-31T04:46:19;10.00;1.00
24436;DHT22;12616;52.470;13.436;2023-03-31T04:48:46;10.00;1.00
24436;DHT22;12616;52.470;13.436;2023-03-31T04:51:14;10.00;1.00
24436;DHT22;12616;52.470;13.436;2023-03-31T04:53:41;10.00;1.00
24436;DHT22;12616;52.470;13.436;2023-03-31T04:56:08;10.00;86.40
24436;DHT22;12616;52.470;13.436;2023-03-31T04:58:35;10.10;1.00
24436;DHT22;12616;52.470;13.436;2023-03-31T05:01:02;10.10;1.00
24436;DHT22;12616;52.470;13.436;2023-03-31T05:03:30;10.00;29.60
24436;DHT22;12616;52.470;13.436;2023-03-31T05:05:57;10.10;1.00
24436;DHT22;12616;52.470;13.436;2023-03-31T05:08:27;10.00;1.00
24436;DHT22;12616;52.470;13.436;2023-03-31T05:10:54;9.80;21.90
24436;DHT22;12616;52.470;13.436;2023-03-31T05:13:20;10.00;1.00
24436;DHT22;12616;52.470;13.436;2023-03-31T05:15:47;10.10;1.00
24436;DHT22;12616;52.470;13.436;2023-03-31T05:18:16;10.10;1.00
24436;DHT22;12616;52.470;13.436;2023-03-31T05:20:43;10.00;1.00
24436;DHT22;12616;52.470;13.436;2023-03-31T05:23:10;10.00;1.00
24436;DHT22;12616;52.470;13.436;2023-03-31T05:25:38;10.40;39.80
24436;DHT22;12616;52.470;13.436;2023-03-31T05:28:07;10.00;1.00
24436;DHT22;12616;52.470;13.436;2023-03-31T05:30:34;9.90;1.00
24436;DHT22;12616;52.470;13.436;2023-03-31T05:33:01;10.00;1.00
24436;DHT22;12616;52.470;13.436;2023-03-31T05:35:27;9.90;31.90
24436;DHT22;12616;52.470;13.436;2023-03-31T05:37:55;10.00;1.00
24436;DHT22;12616;52.470;13.436;2023-03-31T05:40:22;10.00;1.00
24436;DHT22;12616;52.470;13.436;2023-03-31T05:42:50;9.90;1.00
24436;DHT22;12616;52.470;13.436;2023-03-31T05:45:17;9.90;1.00
24436;DHT22;12616;52.470;13.436;2023-03-31T05:47:44;9.90;1.00
24436;DHT22;12616;52.470;13.436;2023-03-31T05:50:10;10.00;1.00
24436;DHT22;12616;52.470;13.436;2023-03-31T05:52:37;10.20;5.10
24436;DHT22;12616;52.470;13.436;2023-03-31T05:55:05;10.20;1.00
24436;DHT22;12616;52.470;13.436;2023-03-31T05:57:32;10.20;1.00
24436;DHT22;12616;52.470;13.436;2023-03-31T06:00:00;10.40;1.00
24436;DHT22;12616;52.470;13.436;2023-03-31T06:02:27;10.40;1.00
24436;DHT22;12616;52.470;13.436;2023-03-31T06:04:54;10.50;1.00
24436;DHT22;12616;52.470;13.436;2023-03-31T06:07:23;10.80;1.00
24436;DHT22;12616;52.470;13.436;2023-03-31T06:09:50;10.60;1.00
24436;DHT22;12616;52.470;13.436;2023-03-31T06:12:17;10.70;1.00
24436;DHT22;12616;52.470;13.436;2023-03-31T06:14:44;10.50;1.00
24436;DHT22;12616;52.470;13.436;2023-03-31T06:17:12;10.60;1.00
24436;DHT22;12616;52.470;13.436;2023-03-31T06:19:39;10.50;1.00
24436;DHT22;12616;52.470;13.436;2023-03-31T06:22:06;10.50;1.00
24436;DHT22;12616;52.470;13.436;2023-03-31T06:24:33;10.50;1.00
24436;DHT22;12616;52.470;13.436;2023-03-31T06:26:59;10.20;1.00
24436;DHT22;12616;52.470;13.436;2023-03-31T06:29:28;10.40;1.00
24436;DHT22;12616;52.470;13.436;2023-03-31T06:31:55;10.50;1.00
24436;DHT22;12616;52.470;13.436;2023-03-31T06:34:23;10.50;1.00
24436;DHT22;12616;52.470;13.436;2023-03-31T06:36:50;10.50;1.00
24436;DHT22;12616;52.470;13.436;2023-03-31T06:39:17;10.40;1.00
24436;DHT22;12616;52.470;13.436;2023-03-31T06:41:44;10.40;1.00
24436;DHT22;12616;52.470;13.436;2023-03-31T06:44:11;10.40;1.00
24436;DHT22;12616;52.470;13.436;2023-03-31T06:46:41;10.50;1.00
24436;DHT22;12616;52.470;13.436;2023-03-31T06:49:08;10.60;1.00
24436;DHT22;12616;52.470;13.436;2023-03-31T06:51:36;10.60;1.00
24436;DHT22;12616;52.470;13.436;2023-03-31T06:54:03;10.80;99.90
24436;DHT22;12616;52.470;13.436;2023-03-31T06:56:29;10.90;99.90
24436;DHT22;12616;52.470;13.436;2023-03-31T06:58:56;10.90;99.90
24436;DHT22;12616;52.470;13.436;2023-03-31T07:01:23;11.00;99.90
24436;DHT22;12616;52.470;13.436;2023-03-31T07:03:50;11.00;99.90
24436;DHT22;12616;52.470;13.436;2023-03-31T07:06:17;11.10;99.90
24436;DHT22;12616;52.470;13.436;2023-03-31T07:08:45;11.20;99.90
24436;DHT22;12616;52.470;13.436;2023-03-31T07:11:12;11.30;99.90
24436;DHT22;12616;52.470;13.436;2023-03-31T07:13:39;11.40;60.50
24436;DHT22;12616;52.470;13.436;2023-03-31T07:16:06;11.60;9.00
24436;DHT22;12616;52.470;13.436;2023-03-31T07:18:34;11.60;1.00
24436;DHT22;12616;52.470;13.436;2023-03-31T07:21:03;11.40;1.00
24436;DHT22;12616;52.470;13.436;2023-03-31T07:23:32;11.70;1.00
24436;DHT22;12616;52.470;13.436;2023-03-31T07:26:00;11.60;1.00
24436;DHT22;12616;52.470;13.436;2023-03-31T07:28:27;11.70;1.00
24436;DHT22;12616;52.470;13.436;2023-03-31T07:30:54;11.80;1.00
24436;DHT22;12616;52.470;13.436;2023-03-31T07:33:21;11.90;1.00
24436;DHT22;12616;52.470;13.436;2023-03-31T07:35:48;12.40;1.00
24436;DHT22;12616;52.470;13.436;2023-03-31T07:38:14;12.20;1.00
24436;DHT22;12616;52.470;13.436;2023-03-31T07:40:43;12.20;1.00
24436;DHT22;12616;52.470;13.436;2023-03-31T07:43:11;12.30;1.00
24436;DHT22;12616;52.470;13.436;2023-03-31T07:45:39;12.30;99.90
24436;DHT22;12616;52.470;13.436;2023-03-31T07:48:06;12.30;99.90
24436;DHT22;12616;52.470;13.436;2023-03-31T07:50:33;12.50;99.90
24436;DHT22;12616;52.470;13.436;2023-03-31T07:53:00;12.60;99.90
24436;DHT22;12616;52.470;13.436;2023-03-31T07:55:26;12.70;99.90
24436;DHT22;12616;52.470;13.436;2023-03-31T07:57:53;12.80;99.90
24436;DHT22;12616;52.470;13.436;2023-03-31T08:00:22;12.80;99.90
24436;DHT22;12616;52.470;13.436;2023-03-31T08:02:49;12.90;43.30
24436;DHT22;12616;52.470;13.436;2023-03-31T08:05:18;13.00;1.00
24436;DHT22;12616;52.470;13.436;2023-03-31T08:07:47;13.00;1.00
24436;DHT22;12616;52.470;13.436;2023-03-31T08:10:17;13.10;99.90
24436;DHT22;12616;52.470;13.436;2023-03-31T08:12:44;13.00;99.90
24436;DHT22;12616;52.470;13.436;2023-03-31T08:15:11;13.20;1.00
24436;DHT22;12616;52.470;13.436;2023-03-31T08:17:40;13.20;3.70
24436;DHT22;12616;52.470;13.436;2023-03-31T08:20:08;13.20;1.00
24436;DHT22;12616;52.470;13.436;2023-03-31T08:22:35;13.30;1.00
24436;DHT22;12616;52.470;13.436;2023-03-31T08:25:02;13.50;1.00
24436;DHT22;12616;52.470;13.436;2023-03-31T08:27:32;13.50;99.90
24436;DHT22;12616;52.470;13.436;2023-03-31T08:29:59;13.60;99.90
24436;DHT22;12616;52.470;13.436;2023-03-31T08:32:29;13.70;99.90
24436;DHT22;12616;52.470;13.436;2023-03-31T08:34:57;13.70;1.00
24436;DHT22;12616;52.470;13.436;2023-03-31T08:37:25;13.80;1.00
24436;DHT22;12616;52.470;13.436;2023-03-31T08:39:53;13.80;1.00
24436;DHT22;12616;52.470;13.436;2023-03-31T08:42:24;13.70;99.90
24436;DHT22;12616;52.470;13.436;2023-03-31T08:44:58;13.50;1.00
24436;DHT22;12616;52.470;13.436;2023-03-31T08:47:26;13.50;1.00
24436;DHT22;12616;52.470;13.436;2023-03-31T08:49:58;13.70;1.00
24436;DHT22;12616;52.470;13.436;2023-03-31T08:52:30;13.80;1.00
24436;DHT22;12616;52.470;13.436;2023-03-31T08:55:00;13.80;99.90
24436;DHT22;12616;52.470;13.436;2023-03-31T08:57:32;14.00;1.00
24436;DHT22;12616;52.470;13.436;2023-03-31T09:00:02;13.60;99.90
24436;DHT22;12616;52.470;13.436;2023-03-31T09:02:37;13.70;1.00
24436;DHT22;12616;52.470;13.436;2023-03-31T09:05:21;13.80;99.90
24436;DHT22;12616;52.470;13.436;2023-03-31T09:07:57;13.90;99.90
24436;DHT22;12616;52.470;13.436;2023-03-31T09:10:42;13.80;99.90
24436;DHT22;12616;52.470;13.436;2023-03-31T09:13:29;13.70;99.90
24436;DHT22;12616;52.470;13.436;2023-03-31T09:16:03;13.80;99.90
24436;DHT22;12616;52.470;13.436;2023-03-31T09:18:36;13.80;99.90
24436;DHT22;12616;52.470;13.436;2023-03-31T09:21:12;14.10;1.00
24436;DHT22;12616;52.470;13.436;2023-03-31T09:23:45;14.20;99.90
24436;DHT22;12616;52.470;13.436;2023-03-31T09:26:19;14.40;99.90
24436;DHT22;12616;52.470;13.436;2023-03-31T09:28:47;14.60;99.90
24436;DHT22;12616;52.470;13.436;2023-03-31T09:31:18;14.60;99.90
24436;DHT22;12616;52.470;13.436;2023-03-31T09:33:46;14.70;99.90
24436;DHT22;12616;52.470;13.436;2023-03-31T09:36:16;14.70;99.90
24436;DHT22;12616;52.470;13.436;2023-03-31T09:38:44;14.70;99.90
24436;DHT22;12616;52.470;13.436;2023-03-31T09:41:13;15.00;99.90
24436;DHT22;12616;52.470;13.436;2023-03-31T09:43:40;14.90;99.70
24436;DHT22;12616;52.470;13.436;2023-03-31T09:46:15;15.50;99.90
24436;DHT22;12616;52.470;13.436;2023-03-31T09:48:50;14.90;99.90
24436;DHT22;12616;52.470;13.436;2023-03-31T09:51:22;14.60;99.90
24436;DHT22;12616;52.470;13.436;2023-03-31T09:53:54;14.60;99.90
24436;DHT22;12616;52.470;13.436;2023-03-31T09:56:43;14.40;99.90
24436;DHT22;12616;52.470;13.436;2023-03-31T09:59:14;14.70;99.90
24436;DHT22;12616;52.470;13.436;2023-03-31T10:01:43;15.50;99.90
24436;DHT22;12616;52.470;13.436;2023-03-31T10:04:18;15.70;1.00
24436;DHT22;12616;52.470;13.436;2023-03-31T10:06:47;15.70;1.00
24436;DHT22;12616;52.470;13.436;2023-03-31T10:09:18;15.80;1.00
24436;DHT22;12616;52.470;13.436;2023-03-31T10:12:06;15.30;1.00
24436;DHT22;12616;52.470;13.436;2023-03-31T10:14:40;14.90;99.90
24436;DHT22;12616;52.470;13.436;2023-03-31T10:17:13;14.70;99.90
24436;DHT22;12616;52.470;13.436;2023-03-31T10:19:46;14.30;1.00
24436;DHT22;12616;52.470;13.436;2023-03-31T10:22:26;14.10;1.00
24436;DHT22;12616;52.470;13.436;2023-03-31T10:24:54;14.00;35.60
24436;DHT22;12616;52.470;13.436;2023-03-31T10:27:30;14.10;1.00
24436;DHT22;12616;52.470;13.436;2023-03-31T10:29:59;14.00;48.80
24436;DHT22;12616;52.470;13.436;2023-03-31T10:32:28;14.10;1.00
24436;DHT22;12616;52.470;13.436;2023-03-31T10:34:58;14.00;45.60
24436;DHT22;12616;52.470;13.436;2023-03-31T10:37:31;13.90;99.90
24436;DHT22;12616;52.470;13.436;2023-03-31T10:40:02;13.90;1.00
24436;DHT22;12616;52.470;13.436;2023-03-31T10:42:31;13.90;99.90
24436;DHT22;12616;52.470;13.436;2023-03-31T10:45:17;14.00;99.90
24436;DHT22;12616;52.470;13.436;2023-03-31T10:47:52;14.20;99.90
24436;DHT22;12616;52.470;13.436;2023-03-31T10:50:26;14.30;1.00
24436;DHT22;12616;52.470;13.436;2023-03-31T10:53:01;14.30;99.90
24436;DHT22;12616;52.470;13.436;2023-03-31T10:55:33;14.30;1.00
24436;DHT22;12616;52.470;13.436;2023-03-31T10:58:05;14.20;1.00
24436;DHT22;12616;52.470;13.436;2023-03-31T11:00:40;14.00;99.90
24436;DHT22;12616;52.470;13.436;2023-03-31T11:03:26;13.60;1.00
24436;DHT22;12616;52.470;13.436;2023-03-31T11:06:02;13.10;99.90
24436;DHT22;12616;52.470;13.436;2023-03-31T11:08:42;13.30;1.00
24436;DHT22;12616;52.470;13.436;2023-03-31T11:11:27;13.10;51.00
24436;DHT22;12616;52.470;13.436;2023-03-31T11:14:02;13.20;99.90
24436;DHT22;12616;52.470;13.436;2023-03-31T11:16:39;13.40;99.90
24436;DHT22;12616;52.470;13.436;2023-03-31T11:19:19;13.70;99.90
24436;DHT22;12616;52.470;13.436;2023-03-31T11:21:53;13.90;1.00
24436;DHT22;12616;52.470;13.436;2023-03-31T11:24:33;13.90;1.00
24436;DHT22;12616;52.470;13.436;2023-03-31T11:27:12;13.80;1.00
24436;DHT22;12616;52.470;13.436;2023-03-31T11:29:46;13.60;1.00
24436;DHT22;12616;52.470;13.436;2023-03-31T11:32:39;13.60;99.90
24436;DHT22;12616;52.470;13.436;2023-03-31T11:35:29;13.70;99.90
24436;DHT22;12616;52.470;13.436;2023-03-31T11:38:31;13.80;99.90
24436;DHT22;12616;52.470;13.436;2023-03-31T11:41:04;13.90;1.00
24436;DHT22;12616;52.470;13.436;2023-03-31T11:43:36;13.80;1.00
24436;DHT22;12616;52.470;13.436;2023-03-31T11:46:07;14.00;1.00
24436;DHT22;12616;52.470;13.436;2023-03-31T11:48:42;14.10;1.00
24436;DHT22;12616;52.470;13.436;2023-03-31T11:51:15;14.20;1.00
24436;DHT22;12616;52.470;13.436;2023-03-31T11:53:43;14.50;1.00
24436;DHT22;12616;52.470;13.436;2023-03-31T11:56:12;14.20;99.90
24436;DHT22;12616;52.470;13.436;2023-03-31T11:58:44;14.30;1.00
24436;DHT22;12616;52.470;13.436;2023-03-31T12:01:17;14.20;99.90
24436;DHT22;12616;52.470;13.436;2023-03-31T12:03:51;14.30;1.00
24436;DHT22;12616;52.470;13.436;2023-03-31T12:06:21;14.20;1.00
24436;DHT22;12616;52.470;13.436;2023-03-31T12:09:00;14.10;1.00
24436;DHT22;12616;52.470;13.436;2023-03-31T12:11:34;14.10;1.00
24436;DHT22;12616;52.470;13.436;2023-03-31T12:14:13;14.10;1.00
24436;DHT22;12616;52.470;13.436;2023-03-31T12:16:43;14.40;38.30
24436;DHT22;12616;52.470;13.436;2023-03-31T12:19:15;14.50;1.00
24436;DHT22;12616;52.470;13.436;2023-03-31T12:21:47;14.50;1.00
24436;DHT22;12616;52.470;13.436;2023-03-31T12:24:15;14.70;1.00
24436;DHT22;12616;52.470;13.436;2023-03-31T12:26:50;14.70;99.90
24436;DHT22;12616;52.470;13.436;2023-03-31T12:29:27;14.60;32.70
24436;DHT22;12616;52.470;13.436;2023-03-31T12:31:58;14.70;1.00
24436;DHT22;12616;52.470;13.436;2023-03-31T12:34:27;14.60;1.00
24436;DHT22;12616;52.470;13.436;2023-03-31T12:37:07;14.40;1.00
24436;DHT22;12616;52.470;13.436;2023-03-31T12:39:47;14.40;1.00
24436;DHT22;12616;52.470;13.436;2023-03-31T12:42:43;14.10;99.90
24436;DHT22;12616;52.470;13.436;2023-03-31T12:45:20;12.70;99.90
24436;DHT22;12616;52.470;13.436;2023-03-31T12:48:19;12.70;99.90
24436;DHT22;12616;52.470;13.436;2023-03-31T12:51:03;12.10;99.90
24436;DHT22;12616;52.470;13.436;2023-03-31T12:53:38;11.70;1.00
24436;DHT22;12616;52.470;13.436;2023-03-31T12:56:09;11.50;1.00
24436;DHT22;12616;52.470;13.436;2023-03-31T12:58:45;11.50;99.90
24436;DHT22;12616;52.470;13.436;2023-03-31T13:01:17;11.50;99.90
24436;DHT22;12616;52.470;13.436;2023-03-31T13:03:47;11.40;99.90
24436;DHT22;12616;52.470;13.436;2023-03-31T13:06:49;11.50;1.00
24436;DHT22;12616;52.470;13.436;2023-03-31T13:09:44;11.60;1.00
24436;DHT22;12616;52.470;13.436;2023-03-31T13:12:20;11.60;1.00
24436;DHT22;12616;52.470;13.436;2023-03-31T13:14:50;11.60;1.00
24436;DHT22;12616;52.470;13.436;2023-03-31T13:17:29;11.70;1.00
24436;DHT22;12616;52.470;13.436;2023-03-31T13:20:15;11.70;1.00
24436;DHT22;12616;52.470;13.436;2023-03-31T13:22:44;11.70;1.00
24436;DHT22;12616;52.470;13.436;2023-03-31T13:25:43;11.80;1.00
24436;DHT22;12616;52.470;13.436;2023-03-31T13:28:17;12.20;1.00
24436;DHT22;12616;52.470;13.436;2023-03-31T13:30:53;11.60;18.50
24436;DHT22;12616;52.470;13.436;2023-03-31T13:33:24;11.50;58.30
24436;DHT22;12616;52.470;13.436;2023-03-31T13:36:03;11.00;99.90
24436;DHT22;12616;52.470;13.436;2023-03-31T13:38:44;11.20;99.90
24436;DHT22;12616;52.470;13.436;2023-03-31T13:41:26;11.20;99.90
24436;DHT22;12616;52.470;13.436;2023-03-31T13:44:16;11.10;99.90
24436;DHT22;12616;52.470;13.436;2023-03-31T13:47:31;11.00;99.90
24436;DHT22;12616;52.470;13.436;2023-03-31T13:50:20;11.00;99.90
24436;DHT22;12616;52.470;13.436;2023-03-31T13:53:01;11.00;99.90
24436;DHT22;12616;52.470;13.436;2023-03-31T13:55:49;10.90;99.90
24436;DHT22;12616;52.470;13.436;2023-03-31T13:58:40;10.90;99.90
24436;DHT22;12616;52.470;13.436;2023-03-31T14:07:28;10.90;99.90
24436;DHT22;12616;52.470;13.436;2023-03-31T14:09:56;11.00;99.90
24436;DHT22;12616;52.470;13.436;2023-03-31T14:12:32;10.90;99.90
24436;DHT22;12616;52.470;13.436;2023-03-31T14:15:00;10.80;99.90
24436;DHT22;12616;52.470;13.436;2023-03-31T14:17:30;10.80;99.90
24436;DHT22;12616;52.470;13.436;2023-03-31T14:20:12;10.90;99.90
24436;DHT22;12616;52.470;13.436;2023-03-31T14:22:49;10.80;99.90
24436;DHT22;12616;52.470;13.436;2023-03-31T14:25:29;10.70;99.90
24436;DHT22;12616;52.470;13.436;2023-03-31T14:28:14;10.70;99.90
24436;DHT22;12616;52.470;13.436;2023-03-31T14:30:50;10.60;98.30
24436;DHT22;12616;52.470;13.436;2023-03-31T14:33:30;10.60;99.90
24436;DHT22;12616;52.470;13.436;2023-03-31T14:36:06;10.70;99.90
24436;DHT22;12616;52.470;13.436;2023-03-31T14:38:36;10.70;99.90
24436;DHT22;12616;52.470;13.436;2023-03-31T14:41:03;10.30;99.90
24436;DHT22;12616;52.470;13.436;2023-03-31T14:43:32;10.60;99.90
24436;DHT22;12616;52.470;13.436;2023-03-31T14:46:05;10.60;64.50
24436;DHT22;12616;52.470;13.436;2023-03-31T14:48:33;10.60;68.90
24436;DHT22;12616;52.470;13.436;2023-03-31T14:51:02;10.60;59.40
24436;DHT22;12616;52.470;13.436;2023-03-31T14:53:29;10.70;99.50
24436;DHT22;12616;52.470;13.436;2023-03-31T14:56:06;10.60;1.00
24436;DHT22;12616;52.470;13.436;2023-03-31T14:58:35;10.50;1.00
24436;DHT22;12616;52.470;13.436;2023-03-31T15:01:04;10.80;92.60
24436;DHT22;12616;52.470;13.436;2023-03-31T15:03:32;10.90;98.10
24436;DHT22;12616;52.470;13.436;2023-03-31T15:06:01;10.50;20.70
24436;DHT22;12616;52.470;13.436;2023-03-31T15:08:32;10.50;1.00
24436;DHT22;12616;52.470;13.436;2023-03-31T15:11:04;10.70;1.00
24436;DHT22;12616;52.470;13.436;2023-03-31T15:13:34;10.80;39.60
24436;DHT22;12616;52.470;13.436;2023-03-31T15:16:20;10.50;1.00
24436;DHT22;12616;52.470;13.436;2023-03-31T15:19:06;10.70;33.50
24436;DHT22;12616;52.470;13.436;2023-03-31T15:24:10;10.50;1.00
24436;DHT22;12616;52.470;13.436;2023-03-31T15:26:43;10.60;22.10
24436;DHT22;12616;52.470;13.436;2023-03-31T15:29:16;10.60;23.10
24436;DHT22;12616;52.470;13.436;2023-03-31T15:34:13;10.60;1.00
24436;DHT22;12616;52.470;13.436;2023-03-31T15:36:42;10.60;1.00
24436;DHT22;12616;52.470;13.436;2023-03-31T15:39:12;10.60;1.00
24436;DHT22;12616;52.470;13.436;2023-03-31T15:41:46;10.60;1.00
24436;DHT22;12616;52.470;13.436;2023-03-31T15:44:42;10.60;1.00
24436;DHT22;12616;52.470;13.436;2023-03-31T15:47:17;10.60;1.00
24436;DHT22;12616;52.470;13.436;2023-03-31T15:49:52;10.10;6.80
24436;DHT22;12616;52.470;13.436;2023-03-31T15:52:22;10.60;1.00
24436;DHT22;12616;52.470;13.436;2023-03-31T15:55:00;10.60;1.00
24436;DHT22;12616;52.470;13.436;2023-03-31T15:57:33;10.60;1.00
24436;DHT22;12616;52.470;13.436;2023-03-31T16:00:02;10.70;36.70
24436;DHT22;12616;52.470;13.436;2023-03-31T16:02:38;10.90;1.00
24436;DHT22;12616;52.470;13.436;2023-03-31T16:05:21;10.20;7.70
24436;DHT22;12616;52.470;13.436;2023-03-31T16:07:49;10.50;1.00
24436;DHT22;12616;52.470;13.436;2023-03-31T16:10:18;10.40;9.60
24436;DHT22;12616;52.470;13.436;2023-03-31T16:12:51;10.50;1.00
24436;DHT22;12616;52.470;13.436;2023-03-31T16:15:26;10.50;1.00